sensor_id;sensor_type;location;lat;lon;timestamp;P1;durP1;ratioP1;P2;durP2;ratioP2
1366;SDS011;16877;48.810;9.282;2023-09-08T00:00:16;5.57;;;4.90;;
1366;SDS011;16877;48.810;9.282;2023-09-08T00:02:47;5.77;;;5.27;;
1366;SDS011;16877;48.810;9.282;2023-09-08T00:05:29;6.97;;;5.50;;
1366;SDS011;16877;48.810;9.282;2023-09-08T00:07:59;4.83;;;4.20;;
1366;SDS011;16877;48.810;9.282;2023-09-08T00:10:29;5.50;;;5.00;;
1366;SDS011;16877;48.810;9.282;2023-09-08T00:13:12;5.23;;;4.67;;
1366;SDS011;16877;48.810;9.282;2023-09-08T00:15:54;6.67;;;5.10;;
1366;SDS011;16877;48.810;9.282;2023-09-08T00:18:37;5.20;;;4.70;;
1366;SDS011;16877;48.810;9.282;2023-09-08T00:21:19;5.03;;;4.57;;
1366;SDS011;16877;48.810;9.282;2023-09-08T00:24:04;7.17;;;5.07;;
1366;SDS011;16877;48.810;9.282;2023-09-08T00:26:32;6.50;;;4.57;;
1366;SDS011;16877;48.810;9.282;2023-09-08T00:29:01;4.93;;;4.43;;
1366;SDS011;16877;48.810;9.282;2023-09-08T00:31:43;5.90;;;5.30;;
1366;SDS011;16877;48.810;9.282;2023-09-08T00:34:25;6.07;;;5.50;;
1366;SDS011;16877;48.810;9.282;2023-09-08T00:36:54;5.63;;;4.90;;
1366;SDS011;16877;48.810;9.282;2023-09-08T00:39:38;5.67;;;5.13;;
1366;SDS011;16877;48.810;9.282;2023-09-08T00:42:20;6.00;;;5.20;;
1366;SDS011;16877;48.810;9.282;2023-09-08T00:45:02;5.63;;;5.13;;
1366;SDS011;16877;48.810;9.282;2023-09-08T00:47:32;6.10;;;5.50;;
1366;SDS011;16877;48.810;9.282;2023-09-08T00:50:03;5.27;;;4.63;;
1366;SDS011;16877;48.810;9.282;2023-09-08T00:52:32;4.97;;;4.57;;
1366;SDS011;16877;48.810;9.282;2023-09-08T00:55:16;5.63;;;5.13;;
1366;SDS011;16877;48.810;9.282;2023-09-08T00:57:46;5.50;;;5.00;;
1366;SDS011;16877;48.810;9.282;2023-09-08T01:00:29;5.40;;;4.90;;
1366;SDS011;16877;48.810;9.282;2023-09-08T01:02:59;5.57;;;4.83;;
1366;SDS011;16877;48.810;9.282;2023-09-08T01:05:31;5.20;;;4.73;;
1366;SDS011;16877;48.810;9.282;2023-09-08T01:08:14;5.30;;;4.80;;
1366;SDS011;16877;48.810;9.282;2023-09-08T01:10:59;6.33;;;4.60;;
1366;SDS011;16877;48.810;9.282;2023-09-08T01:13:29;7.40;;;4.50;;
1366;SDS011;16877;48.810;9.282;2023-09-08T01:16:12;4.73;;;4.33;;
1366;SDS011;16877;48.810;9.282;2023-09-08T01:18:40;6.43;;;5.27;;
1366;SDS011;16877;48.810;9.282;2023-09-08T01:21:26;5.83;;;4.57;;
1366;SDS011;16877;48.810;9.282;2023-09-08T01:24:31;6.63;;;4.83;;
1366;SDS011;16877;48.810;9.282;2023-09-08T01:27:25;4.87;;;4.43;;
1366;SDS011;16877;48.810;9.282;2023-09-08T01:30:10;8.50;;;5.60;;
1366;SDS011;16877;48.810;9.282;2023-09-08T01:32:54;4.53;;;4.13;;
1366;SDS011;16877;48.810;9.282;2023-09-08T01:35:22;9.53;;;4.47;;
1366;SDS011;16877;48.810;9.282;2023-09-08T01:38:06;6.20;;;5.20;;
1366;SDS011;16877;48.810;9.282;2023-09-08T01:40:48;5.93;;;5.33;;
1366;SDS011;16877;48.810;9.282;2023-09-08T01:43:32;5.43;;;4.90;;
1366;SDS011;16877;48.810;9.282;2023-09-08T01:46:16;5.73;;;4.53;;
1366;SDS011;16877;48.810;9.282;2023-09-08T01:48:59;6.40;;;5.47;;
1366;SDS011;16877;48.810;9.282;2023-09-08T01:51:41;5.30;;;4.80;;
1366;SDS011;16877;48.810;9.282;2023-09-08T01:54:24;5.20;;;4.70;;
1366;SDS011;16877;48.810;9.282;2023-09-08T01:57:06;5.83;;;4.50;;
1366;SDS011;16877;48.810;9.282;2023-09-08T01:59:50;5.37;;;4.87;;
1366;SDS011;16877;48.810;9.282;2023-09-08T02:02:32;5.50;;;5.00;;
1366;SDS011;16877;48.810;9.282;2023-09-08T02:05:15;5.10;;;4.63;;
1366;SDS011;16877;48.810;9.282;2023-09-08T02:07:43;5.43;;;4.93;;
1366;SDS011;16877;48.810;9.282;2023-09-08T02:10:25;7.80;;;6.20;;
1366;SDS011;16877;48.810;9.282;2023-09-08T02:13:08;6.63;;;6.03;;
1366;SDS011;16877;48.810;9.282;2023-09-08T02:15:38;5.87;;;4.87;;
1366;SDS011;16877;48.810;9.282;2023-09-08T02:18:20;5.67;;;5.10;;
1366;SDS011;16877;48.810;9.282;2023-09-08T02:21:02;4.63;;;4.20;;
1366;SDS011;16877;48.810;9.282;2023-09-08T02:23:32;6.03;;;5.43;;
1366;SDS011;16877;48.810;9.282;2023-09-08T02:26:14;5.93;;;4.97;;
1366;SDS011;16877;48.810;9.282;2023-09-08T02:28:44;5.40;;;4.90;;
1366;SDS011;16877;48.810;9.282;2023-09-08T02:31:28;5.30;;;4.80;;
1366;SDS011;16877;48.810;9.282;2023-09-08T02:34:10;5.10;;;4.60;;
1366;SDS011;16877;48.810;9.282;2023-09-08T02:36:52;6.90;;;5.23;;
1366;SDS011;16877;48.810;9.282;2023-09-08T02:39:35;9.40;;;4.60;;
1366;SDS011;16877;48.810;9.282;2023-09-08T02:42:17;6.07;;;5.17;;
1366;SDS011;16877;48.810;9.282;2023-09-08T02:44:59;5.60;;;5.10;;
1366;SDS011;16877;48.810;9.282;2023-09-08T02:47:43;5.50;;;5.00;;
1366;SDS011;16877;48.810;9.282;2023-09-08T02:50:26;5.20;;;4.70;;
1366;SDS011;16877;48.810;9.282;2023-09-08T02:53:08;5.83;;;4.60;;
1366;SDS011;16877;48.810;9.282;2023-09-08T02:55:50;6.60;;;4.10;;
1366;SDS011;16877;48.810;9.282;2023-09-08T02:58:33;5.73;;;5.23;;
1366;SDS011;16877;48.810;9.282;2023-09-08T03:01:16;6.50;;;5.37;;
1366;SDS011;16877;48.810;9.282;2023-09-08T03:03:47;5.70;;;5.20;;
1366;SDS011;16877;48.810;9.282;2023-09-08T03:06:17;6.67;;;5.60;;
1366;SDS011;16877;48.810;9.282;2023-09-08T03:08:46;5.80;;;5.20;;
1366;SDS011;16877;48.810;9.282;2023-09-08T03:11:29;5.70;;;5.20;;
1366;SDS011;16877;48.810;9.282;2023-09-08T03:14:11;5.97;;;5.47;;
1366;SDS011;16877;48.810;9.282;2023-09-08T03:16:53;6.70;;;6.13;;
1366;SDS011;16877;48.810;9.282;2023-09-08T03:19:23;6.00;;;5.40;;
1366;SDS011;16877;48.810;9.282;2023-09-08T03:22:05;6.63;;;5.60;;
1366;SDS011;16877;48.810;9.282;2023-09-08T03:24:48;6.50;;;5.47;;
1366;SDS011;16877;48.810;9.282;2023-09-08T03:27:30;6.10;;;5.50;;
1366;SDS011;16877;48.810;9.282;2023-09-08T03:30:13;5.60;;;5.00;;
1366;SDS011;16877;48.810;9.282;2023-09-08T03:32:41;6.70;;;6.00;;
1366;SDS011;16877;48.810;9.282;2023-09-08T03:35:25;6.30;;;5.70;;
1366;SDS011;16877;48.810;9.282;2023-09-08T03:37:53;6.80;;;5.70;;
1366;SDS011;16877;48.810;9.282;2023-09-08T03:40:35;7.40;;;6.60;;
1366;SDS011;16877;48.810;9.282;2023-09-08T03:43:03;7.03;;;6.33;;
1366;SDS011;16877;48.810;9.282;2023-09-08T03:45:45;6.97;;;5.80;;
1366;SDS011;16877;48.810;9.282;2023-09-08T03:48:14;7.57;;;6.10;;
1366;SDS011;16877;48.810;9.282;2023-09-08T03:50:58;6.70;;;6.00;;
1366;SDS011;16877;48.810;9.282;2023-09-08T03:53:40;8.60;;;6.43;;
1366;SDS011;16877;48.810;9.282;2023-09-08T03:56:22;7.33;;;6.53;;
1366;SDS011;16877;48.810;9.282;2023-09-08T03:59:05;8.20;;;6.47;;
1366;SDS011;16877;48.810;9.282;2023-09-08T04:01:47;7.50;;;6.70;;
1366;SDS011;16877;48.810;9.282;2023-09-08T04:04:30;7.37;;;5.87;;
1366;SDS011;16877;48.810;9.282;2023-09-08T04:07:13;6.90;;;6.20;;
1366;SDS011;16877;48.810;9.282;2023-09-08T04:09:56;7.03;;;6.30;;
1366;SDS011;16877;48.810;9.282;2023-09-08T04:12:38;8.30;;;7.00;;
1366;SDS011;16877;48.810;9.282;2023-09-08T04:15:20;6.73;;;6.10;;
1366;SDS011;16877;48.810;9.282;2023-09-08T04:18:03;8.87;;;6.97;;
1366;SDS011;16877;48.810;9.282;2023-09-08T04:20:31;8.47;;;6.50;;
1366;SDS011;16877;48.810;9.282;2023-09-08T04:23:11;7.00;;;6.33;;
1366;SDS011;16877;48.810;9.282;2023-09-08T04:25:54;6.80;;;6.10;;
1366;SDS011;16877;48.810;9.282;2023-09-08T04:28:33;6.83;;;5.93;;
1366;SDS011;16877;48.810;9.282;2023-09-08T04:31:15;6.30;;;5.60;;
1366;SDS011;16877;48.810;9.282;2023-09-08T04:33:47;7.43;;;6.67;;
1366;SDS011;16877;48.810;9.282;2023-09-08T04:36:29;6.40;;;5.63;;
1366;SDS011;16877;48.810;9.282;2023-09-08T04:39:13;6.93;;;6.23;;
1366;SDS011;16877;48.810;9.282;2023-09-08T04:41:41;6.43;;;5.83;;
1366;SDS011;16877;48.810;9.282;2023-09-08T04:44:11;6.60;;;6.00;;
1366;SDS011;16877;48.810;9.282;2023-09-08T04:46:53;6.40;;;5.80;;
1366;SDS011;16877;48.810;9.282;2023-09-08T04:49:35;6.93;;;6.33;;
1366;SDS011;16877;48.810;9.282;2023-09-08T04:52:17;7.10;;;6.37;;
1366;SDS011;16877;48.810;9.282;2023-09-08T04:55:01;6.30;;;5.70;;
1366;SDS011;16877;48.810;9.282;2023-09-08T04:57:31;6.57;;;5.97;;
1366;SDS011;16877;48.810;9.282;2023-09-08T05:00:13;7.93;;;7.07;;
1366;SDS011;16877;48.810;9.282;2023-09-08T05:02:46;5.97;;;5.37;;
1366;SDS011;16877;48.810;9.282;2023-09-08T05:05:29;6.13;;;5.53;;
1366;SDS011;16877;48.810;9.282;2023-09-08T05:08:11;6.43;;;5.73;;
1366;SDS011;16877;48.810;9.282;2023-09-08T05:10:55;6.80;;;6.10;;
1366;SDS011;16877;48.810;9.282;2023-09-08T05:13:23;7.00;;;5.80;;
1366;SDS011;16877;48.810;9.282;2023-09-08T05:16:05;7.93;;;5.73;;
1366;SDS011;16877;48.810;9.282;2023-09-08T05:18:37;7.43;;;6.00;;
1366;SDS011;16877;48.810;9.282;2023-09-08T05:21:20;6.40;;;5.80;;
1366;SDS011;16877;48.810;9.282;2023-09-08T05:24:02;6.03;;;5.43;;
1366;SDS011;16877;48.810;9.282;2023-09-08T05:26:33;6.40;;;5.50;;
1366;SDS011;16877;48.810;9.282;2023-09-08T05:29:15;6.20;;;5.60;;
1366;SDS011;16877;48.810;9.282;2023-09-08T05:31:58;7.17;;;6.00;;
1366;SDS011;16877;48.810;9.282;2023-09-08T05:34:40;8.93;;;6.10;;
1366;SDS011;16877;48.810;9.282;2023-09-08T05:37:22;6.27;;;5.67;;
1366;SDS011;16877;48.810;9.282;2023-09-08T05:40:05;7.13;;;6.07;;
1366;SDS011;16877;48.810;9.282;2023-09-08T05:42:36;6.90;;;6.20;;
1366;SDS011;16877;48.810;9.282;2023-09-08T05:45:18;7.50;;;6.53;;
1366;SDS011;16877;48.810;9.282;2023-09-08T05:48:01;9.60;;;7.10;;
1366;SDS011;16877;48.810;9.282;2023-09-08T05:50:29;6.90;;;6.10;;
1366;SDS011;16877;48.810;9.282;2023-09-08T05:52:58;7.67;;;6.53;;
1366;SDS011;16877;48.810;9.282;2023-09-08T05:55:27;6.10;;;5.50;;
1366;SDS011;16877;48.810;9.282;2023-09-08T05:58:11;6.57;;;5.87;;
1366;SDS011;16877;48.810;9.282;2023-09-08T06:00:53;6.30;;;5.70;;
1366;SDS011;16877;48.810;9.282;2023-09-08T06:03:36;8.00;;;6.53;;
1366;SDS011;16877;48.810;9.282;2023-09-08T06:06:04;6.00;;;5.33;;
1366;SDS011;16877;48.810;9.282;2023-09-08T06:08:31;8.50;;;5.63;;
1366;SDS011;16877;48.810;9.282;2023-09-08T06:10:59;6.43;;;5.50;;
1366;SDS011;16877;48.810;9.282;2023-09-08T06:13:28;7.43;;;5.90;;
1366;SDS011;16877;48.810;9.282;2023-09-08T06:15:55;7.80;;;6.10;;
1366;SDS011;16877;48.810;9.282;2023-09-08T06:18:22;6.70;;;5.20;;
1366;SDS011;16877;48.810;9.282;2023-09-08T06:20:50;6.27;;;5.40;;
1366;SDS011;16877;48.810;9.282;2023-09-08T06:23:19;6.87;;;6.17;;
1366;SDS011;16877;48.810;9.282;2023-09-08T06:25:47;6.77;;;6.10;;
1366;SDS011;16877;48.810;9.282;2023-09-08T06:28:15;7.20;;;5.87;;
1366;SDS011;16877;48.810;9.282;2023-09-08T06:30:44;8.33;;;6.00;;
1366;SDS011;16877;48.810;9.282;2023-09-08T06:33:11;6.27;;;5.67;;
1366;SDS011;16877;48.810;9.282;2023-09-08T06:35:39;7.13;;;5.50;;
1366;SDS011;16877;48.810;9.282;2023-09-08T06:38:07;9.87;;;6.00;;
1366;SDS011;16877;48.810;9.282;2023-09-08T06:40:34;6.60;;;5.90;;
1366;SDS011;16877;48.810;9.282;2023-09-08T06:43:02;7.87;;;6.03;;
1366;SDS011;16877;48.810;9.282;2023-09-08T06:45:30;6.67;;;5.97;;
1366;SDS011;16877;48.810;9.282;2023-09-08T06:47:59;8.50;;;6.17;;
1366;SDS011;16877;48.810;9.282;2023-09-08T06:50:26;8.30;;;6.57;;
1366;SDS011;16877;48.810;9.282;2023-09-08T06:52:55;6.83;;;6.13;;
1366;SDS011;16877;48.810;9.282;2023-09-08T06:55:25;7.63;;;6.10;;
1366;SDS011;16877;48.810;9.282;2023-09-08T06:57:53;6.33;;;5.73;;
1366;SDS011;16877;48.810;9.282;2023-09-08T07:00:24;8.33;;;5.83;;
1366;SDS011;16877;48.810;9.282;2023-09-08T07:02:51;7.17;;;5.67;;
1366;SDS011;16877;48.810;9.282;2023-09-08T07:05:31;6.97;;;6.07;;
1366;SDS011;16877;48.810;9.282;2023-09-08T07:07:58;6.77;;;5.87;;
1366;SDS011;16877;48.810;9.282;2023-09-08T07:10:26;8.60;;;7.07;;
1366;SDS011;16877;48.810;9.282;2023-09-08T07:12:54;8.00;;;5.80;;
1366;SDS011;16877;48.810;9.282;2023-09-08T07:15:22;7.33;;;6.00;;
1366;SDS011;16877;48.810;9.282;2023-09-08T07:17:51;8.53;;;6.00;;
1366;SDS011;16877;48.810;9.282;2023-09-08T07:20:18;7.63;;;5.77;;
1366;SDS011;16877;48.810;9.282;2023-09-08T07:22:47;9.10;;;6.20;;
1366;SDS011;16877;48.810;9.282;2023-09-08T07:25:15;8.03;;;6.07;;
1366;SDS011;16877;48.810;9.282;2023-09-08T07:27:43;7.80;;;6.00;;
1366;SDS011;16877;48.810;9.282;2023-09-08T07:30:12;8.93;;;6.63;;
1366;SDS011;16877;48.810;9.282;2023-09-08T07:32:40;7.77;;;6.50;;
1366;SDS011;16877;48.810;9.282;2023-09-08T07:35:08;8.77;;;6.70;;
1366;SDS011;16877;48.810;9.282;2023-09-08T07:37:39;8.20;;;7.33;;
1366;SDS011;16877;48.810;9.282;2023-09-08T07:40:10;7.07;;;6.40;;
1366;SDS011;16877;48.810;9.282;2023-09-08T07:42:38;7.57;;;6.33;;
1366;SDS011;16877;48.810;9.282;2023-09-08T07:45:07;7.67;;;6.27;;
1366;SDS011;16877;48.810;9.282;2023-09-08T07:47:35;6.70;;;6.00;;
1366;SDS011;16877;48.810;9.282;2023-09-08T07:52:53;5.80;;;5.30;;
1366;SDS011;16877;48.810;9.282;2023-09-08T07:55:23;7.60;;;5.93;;
1366;SDS011;16877;48.810;9.282;2023-09-08T07:57:53;8.00;;;7.20;;
1366;SDS011;16877;48.810;9.282;2023-09-08T08:00:22;7.27;;;6.60;;
1366;SDS011;16877;48.810;9.282;2023-09-08T08:02:51;6.33;;;5.70;;
1366;SDS011;16877;48.810;9.282;2023-09-08T08:05:21;7.77;;;6.07;;
1366;SDS011;16877;48.810;9.282;2023-09-08T08:07:49;6.87;;;6.20;;
1366;SDS011;16877;48.810;9.282;2023-09-08T08:10:17;6.73;;;6.03;;
1366;SDS011;16877;48.810;9.282;2023-09-08T08:12:46;8.83;;;5.67;;
1366;SDS011;16877;48.810;9.282;2023-09-08T08:15:14;6.90;;;5.60;;
1366;SDS011;16877;48.810;9.282;2023-09-08T08:17:41;6.87;;;6.17;;
1366;SDS011;16877;48.810;9.282;2023-09-08T08:20:10;8.73;;;6.10;;
1366;SDS011;16877;48.810;9.282;2023-09-08T08:22:42;7.30;;;6.53;;
1366;SDS011;16877;48.810;9.282;2023-09-08T08:25:09;6.03;;;5.43;;
1366;SDS011;16877;48.810;9.282;2023-09-08T08:27:37;7.60;;;5.83;;
1366;SDS011;16877;48.810;9.282;2023-09-08T08:30:09;6.90;;;5.43;;
1366;SDS011;16877;48.810;9.282;2023-09-08T08:32:38;8.60;;;5.93;;
1366;SDS011;16877;48.810;9.282;2023-09-08T08:35:20;5.40;;;4.90;;
1366;SDS011;16877;48.810;9.282;2023-09-08T08:37:48;5.40;;;4.90;;
1366;SDS011;16877;48.810;9.282;2023-09-08T08:40:15;6.30;;;5.00;;
1366;SDS011;16877;48.810;9.282;2023-09-08T08:42:43;6.33;;;4.90;;
1366;SDS011;16877;48.810;9.282;2023-09-08T08:45:12;8.37;;;6.20;;
1366;SDS011;16877;48.810;9.282;2023-09-08T08:47:44;7.20;;;6.53;;
1366;SDS011;16877;48.810;9.282;2023-09-08T08:50:12;6.83;;;6.23;;
1366;SDS011;16877;48.810;9.282;2023-09-08T08:52:54;6.97;;;6.03;;
1366;SDS011;16877;48.810;9.282;2023-09-08T08:55:27;5.67;;;5.10;;
1366;SDS011;16877;48.810;9.282;2023-09-08T08:58:01;6.23;;;5.67;;
1366;SDS011;16877;48.810;9.282;2023-09-08T09:00:35;6.10;;;5.50;;
1366;SDS011;16877;48.810;9.282;2023-09-08T09:03:04;6.57;;;5.67;;
1366;SDS011;16877;48.810;9.282;2023-09-08T09:05:53;6.80;;;6.20;;
1366;SDS011;16877;48.810;9.282;2023-09-08T09:08:24;8.63;;;6.00;;
1366;SDS011;16877;48.810;9.282;2023-09-08T09:10:53;6.20;;;5.60;;
1366;SDS011;16877;48.810;9.282;2023-09-08T09:13:21;6.13;;;5.53;;
1366;SDS011;16877;48.810;9.282;2023-09-08T09:15:50;7.20;;;5.70;;
1366;SDS011;16877;48.810;9.282;2023-09-08T09:18:18;7.20;;;6.00;;
1366;SDS011;16877;48.810;9.282;2023-09-08T09:21:01;6.90;;;6.17;;
1366;SDS011;16877;48.810;9.282;2023-09-08T09:23:29;6.13;;;5.53;;
1366;SDS011;16877;48.810;9.282;2023-09-08T09:25:58;6.70;;;6.10;;
1366;SDS011;16877;48.810;9.282;2023-09-08T09:28:26;6.40;;;5.90;;
1366;SDS011;16877;48.810;9.282;2023-09-08T09:30:57;6.43;;;5.80;;
1366;SDS011;16877;48.810;9.282;2023-09-08T09:33:25;7.87;;;6.17;;
1366;SDS011;16877;48.810;9.282;2023-09-08T09:35:52;7.17;;;5.53;;
1366;SDS011;16877;48.810;9.282;2023-09-08T09:38:21;5.93;;;5.33;;
1366;SDS011;16877;48.810;9.282;2023-09-08T09:40:49;6.50;;;5.90;;
1366;SDS011;16877;48.810;9.282;2023-09-08T09:43:24;8.53;;;6.10;;
1366;SDS011;16877;48.810;9.282;2023-09-08T09:45:57;7.77;;;5.43;;
1366;SDS011;16877;48.810;9.282;2023-09-08T09:48:24;5.97;;;5.40;;
1366;SDS011;16877;48.810;9.282;2023-09-08T09:50:54;6.87;;;5.77;;
1366;SDS011;16877;48.810;9.282;2023-09-08T09:53:22;6.73;;;5.63;;
1366;SDS011;16877;48.810;9.282;2023-09-08T09:55:50;6.10;;;5.43;;
1366;SDS011;16877;48.810;9.282;2023-09-08T09:58:19;6.70;;;6.07;;
1366;SDS011;16877;48.810;9.282;2023-09-08T10:01:04;6.00;;;5.50;;
1366;SDS011;16877;48.810;9.282;2023-09-08T10:03:47;5.90;;;5.40;;
1366;SDS011;16877;48.810;9.282;2023-09-08T10:06:36;6.20;;;5.60;;
1366;SDS011;16877;48.810;9.282;2023-09-08T10:09:19;7.43;;;5.80;;
1366;SDS011;16877;48.810;9.282;2023-09-08T10:12:06;7.23;;;6.27;;
1366;SDS011;16877;48.810;9.282;2023-09-08T10:14:44;5.57;;;5.07;;
1366;SDS011;16877;48.810;9.282;2023-09-08T10:17:32;5.77;;;5.27;;
1366;SDS011;16877;48.810;9.282;2023-09-08T10:20:16;6.30;;;5.80;;
1366;SDS011;16877;48.810;9.282;2023-09-08T10:23:00;5.63;;;5.00;;
1366;SDS011;16877;48.810;9.282;2023-09-08T10:25:37;5.60;;;5.00;;
1366;SDS011;16877;48.810;9.282;2023-09-08T10:28:24;6.37;;;5.70;;
1366;SDS011;16877;48.810;9.282;2023-09-08T10:30:54;5.70;;;5.20;;
1366;SDS011;16877;48.810;9.282;2023-09-08T10:33:38;6.13;;;5.63;;
1366;SDS011;16877;48.810;9.282;2023-09-08T10:36:22;5.97;;;5.37;;
1366;SDS011;16877;48.810;9.282;2023-09-08T10:42:20;5.50;;;5.00;;
1366;SDS011;16877;48.810;9.282;2023-09-08T10:45:00;5.63;;;4.50;;
1366;SDS011;16877;48.810;9.282;2023-09-08T10:47:31;6.03;;;5.00;;
1366;SDS011;16877;48.810;9.282;2023-09-08T10:50:02;5.37;;;4.80;;
1366;SDS011;16877;48.810;9.282;2023-09-08T10:52:34;5.50;;;5.00;;
1366;SDS011;16877;48.810;9.282;2023-09-08T10:55:02;5.90;;;5.30;;
1366;SDS011;16877;48.810;9.282;2023-09-08T10:57:31;5.40;;;4.90;;
1366;SDS011;16877;48.810;9.282;2023-09-08T11:00:01;5.50;;;5.00;;
1366;SDS011;16877;48.810;9.282;2023-09-08T11:02:34;6.10;;;5.60;;
1366;SDS011;16877;48.810;9.282;2023-09-08T11:05:08;5.70;;;5.20;;
1366;SDS011;16877;48.810;9.282;2023-09-08T11:07:52;5.85;;;5.35;;
1366;SDS011;16877;48.810;9.282;2023-09-08T11:10:20;5.53;;;5.03;;
1366;SDS011;16877;48.810;9.282;2023-09-08T11:12:47;5.30;;;4.75;;
1366;SDS011;16877;48.810;9.282;2023-09-08T11:15:16;5.20;;;4.70;;
1366;SDS011;16877;48.810;9.282;2023-09-08T11:17:46;5.80;;;5.30;;
1366;SDS011;16877;48.810;9.282;2023-09-08T11:20:25;5.45;;;4.95;;
1366;SDS011;16877;48.810;9.282;2023-09-08T11:22:53;6.35;;;5.82;;
1366;SDS011;16877;48.810;9.282;2023-09-08T11:25:20;11.90;;;5.97;;
1366;SDS011;16877;48.810;9.282;2023-09-08T11:27:48;5.63;;;5.13;;
1366;SDS011;16877;48.810;9.282;2023-09-08T11:30:30;6.28;;;5.68;;
1366;SDS011;16877;48.810;9.282;2023-09-08T11:32:59;5.20;;;4.70;;
1366;SDS011;16877;48.810;9.282;2023-09-08T11:35:31;5.15;;;4.65;;
1366;SDS011;16877;48.810;9.282;2023-09-08T11:37:59;5.13;;;4.53;;
1366;SDS011;16877;48.810;9.282;2023-09-08T11:40:30;5.32;;;4.82;;
1366;SDS011;16877;48.810;9.282;2023-09-08T11:42:59;5.40;;;4.90;;
1366;SDS011;16877;48.810;9.282;2023-09-08T11:45:27;4.95;;;4.55;;
1366;SDS011;16877;48.810;9.282;2023-09-08T11:47:54;4.60;;;4.20;;
1366;SDS011;16877;48.810;9.282;2023-09-08T11:50:22;5.20;;;4.15;;
1366;SDS011;16877;48.810;9.282;2023-09-08T11:52:52;4.97;;;4.47;;
1366;SDS011;16877;48.810;9.282;2023-09-08T11:55:21;4.20;;;3.80;;
1366;SDS011;16877;48.810;9.282;2023-09-08T11:57:49;5.13;;;4.63;;
1366;SDS011;16877;48.810;9.282;2023-09-08T12:00:22;4.93;;;4.53;;
1366;SDS011;16877;48.810;9.282;2023-09-08T12:02:51;5.30;;;4.80;;
1366;SDS011;16877;48.810;9.282;2023-09-08T12:05:22;6.20;;;3.95;;
1366;SDS011;16877;48.810;9.282;2023-09-08T12:07:50;4.45;;;4.05;;
1366;SDS011;16877;48.810;9.282;2023-09-08T12:10:21;5.15;;;4.28;;
1366;SDS011;16877;48.810;9.282;2023-09-08T12:12:49;4.90;;;3.95;;
1366;SDS011;16877;48.810;9.282;2023-09-08T12:15:30;4.35;;;3.95;;
1366;SDS011;16877;48.810;9.282;2023-09-08T12:17:58;4.40;;;3.90;;
1366;SDS011;16877;48.810;9.282;2023-09-08T12:20:26;4.75;;;4.35;;
1366;SDS011;16877;48.810;9.282;2023-09-08T12:22:56;3.92;;;3.63;;
1366;SDS011;16877;48.810;9.282;2023-09-08T12:25:25;5.07;;;4.57;;
1366;SDS011;16877;48.810;9.282;2023-09-08T12:27:53;4.40;;;4.00;;
1366;SDS011;16877;48.810;9.282;2023-09-08T12:30:21;4.85;;;4.45;;
1366;SDS011;16877;48.810;9.282;2023-09-08T12:32:55;4.55;;;4.15;;
1366;SDS011;16877;48.810;9.282;2023-09-08T12:35:23;4.55;;;4.10;;
1366;SDS011;16877;48.810;9.282;2023-09-08T12:37:59;4.97;;;4.47;;
1366;SDS011;16877;48.810;9.282;2023-09-08T12:40:27;4.45;;;3.80;;
1366;SDS011;16877;48.810;9.282;2023-09-08T12:42:56;4.20;;;3.80;;
1366;SDS011;16877;48.810;9.282;2023-09-08T12:45:25;4.25;;;3.85;;
1366;SDS011;16877;48.810;9.282;2023-09-08T12:47:53;4.30;;;3.90;;
1366;SDS011;16877;48.810;9.282;2023-09-08T12:50:23;4.30;;;3.90;;
1366;SDS011;16877;48.810;9.282;2023-09-08T12:52:52;3.92;;;3.53;;
1366;SDS011;16877;48.810;9.282;2023-09-08T12:55:20;4.10;;;3.70;;
1366;SDS011;16877;48.810;9.282;2023-09-08T12:57:48;3.85;;;3.40;;
1366;SDS011;16877;48.810;9.282;2023-09-08T13:00:19;4.35;;;3.95;;
1366;SDS011;16877;48.810;9.282;2023-09-08T13:02:48;4.50;;;4.10;;
1366;SDS011;16877;48.810;9.282;2023-09-08T13:05:15;4.57;;;4.18;;
1366;SDS011;16877;48.810;9.282;2023-09-08T13:07:43;3.95;;;3.55;;
1366;SDS011;16877;48.810;9.282;2023-09-08T13:10:10;3.90;;;3.50;;
1366;SDS011;16877;48.810;9.282;2023-09-08T13:12:39;4.30;;;3.70;;
1366;SDS011;16877;48.810;9.282;2023-09-08T13:15:07;4.28;;;3.88;;
1366;SDS011;16877;48.810;9.282;2023-09-08T13:17:35;3.90;;;3.50;;
1366;SDS011;16877;48.810;9.282;2023-09-08T13:20:03;7.00;;;4.15;;
1366;SDS011;16877;48.810;9.282;2023-09-08T13:22:32;5.35;;;3.95;;
1366;SDS011;16877;48.810;9.282;2023-09-08T13:24:59;4.07;;;3.67;;
1366;SDS011;16877;48.810;9.282;2023-09-08T13:27:27;4.50;;;4.10;;
1366;SDS011;16877;48.810;9.282;2023-09-08T13:29:56;5.85;;;3.67;;
1366;SDS011;16877;48.810;9.282;2023-09-08T13:32:35;5.38;;;4.57;;
1366;SDS011;16877;48.810;9.282;2023-09-08T13:35:02;4.10;;;3.40;;
1366;SDS011;16877;48.810;9.282;2023-09-08T13:37:29;4.10;;;3.70;;
1366;SDS011;16877;48.810;9.282;2023-09-08T13:39:59;4.05;;;3.63;;
1366;SDS011;16877;48.810;9.282;2023-09-08T13:42:26;4.88;;;3.97;;
1366;SDS011;16877;48.810;9.282;2023-09-08T13:44:53;4.18;;;3.78;;
1366;SDS011;16877;48.810;9.282;2023-09-08T13:47:23;5.07;;;4.05;;
1366;SDS011;16877;48.810;9.282;2023-09-08T13:49:51;4.13;;;3.72;;
1366;SDS011;16877;48.810;9.282;2023-09-08T13:52:20;3.75;;;3.40;;
1366;SDS011;16877;48.810;9.282;2023-09-08T13:54:47;4.25;;;3.85;;
1366;SDS011;16877;48.810;9.282;2023-09-08T13:57:14;12.18;;;4.40;;
1366;SDS011;16877;48.810;9.282;2023-09-08T13:59:44;4.40;;;4.00;;
1366;SDS011;16877;48.810;9.282;2023-09-08T14:02:11;4.10;;;3.70;;
1366;SDS011;16877;48.810;9.282;2023-09-08T14:04:40;4.38;;;3.97;;
1366;SDS011;16877;48.810;9.282;2023-09-08T14:07:08;4.10;;;3.70;;
1366;SDS011;16877;48.810;9.282;2023-09-08T14:09:35;4.90;;;3.78;;
1366;SDS011;16877;48.810;9.282;2023-09-08T14:12:02;3.63;;;3.33;;
1366;SDS011;16877;48.810;9.282;2023-09-08T14:14:30;4.57;;;3.80;;
1366;SDS011;16877;48.810;9.282;2023-09-08T14:16:58;4.05;;;3.65;;
1366;SDS011;16877;48.810;9.282;2023-09-08T14:19:25;5.20;;;3.75;;
1366;SDS011;16877;48.810;9.282;2023-09-08T14:21:54;4.28;;;3.88;;
1366;SDS011;16877;48.810;9.282;2023-09-08T14:24:21;4.25;;;3.67;;
1366;SDS011;16877;48.810;9.282;2023-09-08T14:26:49;4.22;;;3.70;;
1366;SDS011;16877;48.810;9.282;2023-09-08T14:29:17;3.72;;;3.25;;
1366;SDS011;16877;48.810;9.282;2023-09-08T14:31:49;4.15;;;3.75;;
1366;SDS011;16877;48.810;9.282;2023-09-08T14:34:17;4.38;;;3.97;;
1366;SDS011;16877;48.810;9.282;2023-09-08T14:36:45;3.72;;;3.42;;
1366;SDS011;16877;48.810;9.282;2023-09-08T14:39:14;4.20;;;3.80;;
1366;SDS011;16877;48.810;9.282;2023-09-08T14:41:44;6.82;;;3.60;;
1366;SDS011;16877;48.810;9.282;2023-09-08T14:44:11;4.03;;;3.63;;
1366;SDS011;16877;48.810;9.282;2023-09-08T14:46:40;4.47;;;3.90;;
1366;SDS011;16877;48.810;9.282;2023-09-08T14:49:07;4.28;;;3.88;;
1366;SDS011;16877;48.810;9.282;2023-09-08T14:51:34;5.25;;;3.50;;
1366;SDS011;16877;48.810;9.282;2023-09-08T14:54:02;3.83;;;3.47;;
1366;SDS011;16877;48.810;9.282;2023-09-08T14:56:32;4.60;;;4.20;;
1366;SDS011;16877;48.810;9.282;2023-09-08T14:58:59;3.85;;;3.47;;
1366;SDS011;16877;48.810;9.282;2023-09-08T15:01:26;4.70;;;4.30;;
1366;SDS011;16877;48.810;9.282;2023-09-08T15:03:54;4.28;;;3.88;;
1366;SDS011;16877;48.810;9.282;2023-09-08T15:06:21;3.90;;;3.50;;
1366;SDS011;16877;48.810;9.282;2023-09-08T15:08:48;4.32;;;3.92;;
1366;SDS011;16877;48.810;9.282;2023-09-08T15:11:15;4.22;;;3.42;;
1366;SDS011;16877;48.810;9.282;2023-09-08T15:13:44;4.43;;;4.00;;
1366;SDS011;16877;48.810;9.282;2023-09-08T15:16:12;5.05;;;3.67;;
1366;SDS011;16877;48.810;9.282;2023-09-08T15:18:39;4.00;;;3.67;;
1366;SDS011;16877;48.810;9.282;2023-09-08T15:21:07;3.58;;;3.28;;
1366;SDS011;16877;48.810;9.282;2023-09-08T15:23:35;4.13;;;3.72;;
1366;SDS011;16877;48.810;9.282;2023-09-08T15:26:17;4.50;;;3.83;;
1366;SDS011;16877;48.810;9.282;2023-09-08T15:28:46;4.47;;;3.92;;
1366;SDS011;16877;48.810;9.282;2023-09-08T15:31:15;3.95;;;3.55;;
1366;SDS011;16877;48.810;9.282;2023-09-08T15:33:43;4.05;;;3.65;;
1366;SDS011;16877;48.810;9.282;2023-09-08T15:36:10;4.78;;;3.80;;
1366;SDS011;16877;48.810;9.282;2023-09-08T15:38:37;4.13;;;3.72;;
1366;SDS011;16877;48.810;9.282;2023-09-08T15:41:17;4.30;;;3.83;;
1366;SDS011;16877;48.810;9.282;2023-09-08T15:43:47;3.80;;;3.42;;